Terminal Aerodrome Forecast
Issued by NWS

Home | Current Version | Previous Version | Text Only | Print | Product List | Glossary On
Versions: 1 2 3 4 5 6 7 8 9 10 11 12 13 14 15 16 17 18 19
051
FTUS46 KMTR 292323
TAFMRY
TAF
KMRY 292323Z 3000/3024 25014G20KT P6SM BKN015
      TEMPO 3000/3003 SCT015
     FM300300 23009KT P6SM OVC012
     FM301600 28009KT P6SM FEW015
     FM302000 27012KT P6SM SKC=

USA.gov is the U.S. government's official web portal to all federal, state and local government web resources and services.